Time;durP1;ratioP1;P1;durP2;ratioP2;P2;SDS_P1;SDS_P2;PMS_P1;PMS_P2;Temp;Humidity;BMP_temperature;BMP_pressure;BME280_temperature;BME280_humidity;BME280_pressure;Samples;Min_cycle;Max_cycle;Signal;HPM_P1;HPM_P2
2022/02/26 00:01:35;;;;;;;20.95;7.03;;;;;;;1.81;100.00;103110.84;5273971;28;20035;-73
2022/02/26 00:04:07;;;;;;;19.95;6.03;;;;;;;1.82;100.00;103112.59;5276918;28;20210;-73
2022/02/26 00:06:38;;;;;;;19.98;6.75;;;;;;;1.80;100.00;103123.81;5276408;28;20470;-74
2022/02/26 00:09:09;;;;;;;18.15;6.97;;;;;;;1.76;100.00;103135.06;5274775;28;20039;-74
2022/02/26 00:11:40;;;;;;;20.65;6.22;;;;;;;1.74;100.00;103129.88;5276301;28;20032;-76
2022/02/26 00:14:12;;;;;;;18.70;6.05;;;;;;;1.73;100.00;103127.31;5276112;28;20032;-74
2022/02/26 00:16:43;;;;;;;20.77;7.88;;;;;;;1.75;100.00;103129.03;5275554;28;20032;-76
2022/02/26 00:19:14;;;;;;;24.00;6.78;;;;;;;1.73;100.00;103138.53;5273455;28;20021;-76
2022/02/26 00:21:46;;;;;;;23.25;6.13;;;;;;;1.78;100.00;103135.88;5274734;28;20089;-73
2022/02/26 00:24:17;;;;;;;19.35;6.40;;;;;;;1.68;100.00;103125.66;5277161;28;20046;-74
2022/02/26 00:26:50;;;;;;;23.58;6.63;;;;;;;1.80;100.00;103137.59;5275679;28;20028;-77
2022/02/26 00:29:22;;;;;;;20.92;7.57;;;;;;;1.81;100.00;103135.84;5275330;28;20029;-75
2022/02/26 00:31:53;;;;;;;21.67;6.35;;;;;;;1.83;100.00;103152.22;5273866;28;20469;-74
2022/02/26 00:34:25;;;;;;;23.23;7.47;;;;;;;1.80;100.00;103158.25;5273634;28;20032;-75
2022/02/26 00:36:56;;;;;;;18.48;6.22;;;;;;;1.81;100.00;103154.78;5273110;28;20119;-73
2022/02/26 00:39:27;;;;;;;15.38;5.00;;;;;;;1.83;100.00;103167.72;5276840;28;20470;-73
2022/02/26 00:41:59;;;;;;;19.20;5.78;;;;;;;1.76;100.00;103163.47;5272877;28;20028;-75
2022/02/26 00:44:30;;;;;;;20.85;5.93;;;;;;;1.77;100.00;103172.94;5272527;28;20068;-74
2022/02/26 00:47:01;;;;;;;18.33;5.88;;;;;;;1.76;100.00;103179.00;5272062;28;20039;-74
2022/02/26 00:49:49;;;;;;;13.70;4.68;;;;;;;1.73;100.00;103184.19;5275463;28;20044;-74
2022/02/26 00:52:24;;;;;;;19.05;5.43;;;;;;;1.72;100.00;103187.66;5273181;28;20078;-73
2022/02/26 00:54:55;;;;;;;15.13;5.18;;;;;;;1.68;100.00;103181.66;5274167;28;20488;-76
2022/02/26 00:57:27;;;;;;;26.15;5.50;;;;;;;1.67;100.00;103179.94;5274838;28;20021;-74
2022/02/26 00:59:58;;;;;;;17.05;5.35;;;;;;;1.73;100.00;103184.19;5276361;28;20412;-76
2022/02/26 01:02:29;;;;;;;16.33;5.38;;;;;;;1.62;100.00;103190.31;5273065;28;20098;-75
2022/02/26 01:05:01;;;;;;;17.85;4.90;;;;;;;1.54;100.00;103196.44;5275517;28;20025;-73
2022/02/26 01:07:32;;;;;;;18.33;5.53;;;;;;;1.50;100.00;103192.16;5273721;28;20024;-75
2022/02/26 01:10:05;;;;;;;20.10;5.30;;;;;;;1.52;100.00;103195.59;5273955;28;20392;-75
2022/02/26 01:12:36;;;;;;;24.92;5.15;;;;;;;1.49;100.00;103190.44;5274344;28;20122;-75
2022/02/26 01:15:08;;;;;;;17.98;5.70;;;;;;;1.52;100.00;103211.09;5275457;28;20114;-74
2022/02/26 01:17:39;;;;;;;15.70;5.05;;;;;;;1.50;100.00;103210.25;5275020;28;20539;-75
2022/02/26 01:20:11;;;;;;;16.13;5.55;;;;;;;1.47;100.00;103213.69;5290706;28;20024;-78
2022/02/26 01:22:42;;;;;;;12.93;5.03;;;;;;;1.47;100.00;103213.69;5275618;28;20029;-74
2022/02/26 01:25:14;;;;;;;15.82;5.35;;;;;;;1.48;100.00;103210.28;5275598;28;20017;-76
2022/02/26 01:27:45;;;;;;;17.60;5.47;;;;;;;1.44;100.00;103216.34;5274414;28;20060;-74
2022/02/26 01:30:16;;;;;;;16.02;5.38;;;;;;;1.36;100.00;103216.38;5274546;28;20085;-75
2022/02/26 01:32:48;;;;;;;21.75;5.97;;;;;;;1.36;100.00;103211.19;5274396;28;20043;-73
2022/02/26 01:35:20;;;;;;;16.42;5.78;;;;;;;1.36;100.00;103207.75;5274617;28;20036;-73
2022/02/26 01:37:51;;;;;;;18.50;5.35;;;;;;;1.37;100.00;103206.91;5274176;28;20021;-74
2022/02/26 01:40:22;;;;;;;17.75;6.70;;;;;;;1.36;100.00;103210.34;5275316;28;20028;-74
2022/02/26 01:42:53;;;;;;;18.13;5.55;;;;;;;1.35;100.00;103213.81;5275266;28;20016;-74
2022/02/26 01:45:26;;;;;;;18.35;5.35;;;;;;;1.32;100.00;103206.06;5274346;28;20024;-74
2022/02/26 01:47:57;;;;;;;15.20;5.85;;;;;;;1.24;100.00;103194.97;5274771;28;20032;-74
2022/02/26 01:50:29;;;;;;;17.98;5.53;;;;;;;1.27;100.00;103213.03;5274711;28;20030;-76
2022/02/26 01:53:01;;;;;;;16.50;5.25;;;;;;;1.21;100.00;103216.47;5272070;28;20101;-73
2022/02/26 01:55:32;;;;;;;13.63;4.50;;;;;;;1.17;100.00;103209.63;5273963;28;20036;-75
2022/02/26 01:58:04;;;;;;;15.82;4.82;;;;;;;1.15;100.00;103207.06;5274543;28;20028;-74
2022/02/26 02:00:36;;;;;;;15.63;5.10;;;;;;;1.19;100.00;103207.91;5274630;28;20060;-75
2022/02/26 02:03:07;;;;;;;18.27;5.15;;;;;;;1.15;100.00;103201.06;5273634;28;20025;-76
2022/02/26 02:05:39;;;;;;;19.75;5.78;;;;;;;1.15;100.00;103207.06;5274582;28;20037;-74
2022/02/26 02:08:11;;;;;;;25.23;5.63;;;;;;;1.16;100.00;103202.75;5272441;28;21151;-73
2022/02/26 02:10:43;;;;;;;17.03;5.17;;;;;;;1.18;100.00;103203.63;5272484;28;20024;-74
2022/02/26 02:13:14;;;;;;;17.70;5.07;;;;;;;1.22;100.00;103197.56;5274978;28;20629;-74
2022/02/26 02:15:46;;;;;;;20.17;5.95;;;;;;;1.19;100.00;103201.03;5274627;28;20073;-73
2022/02/26 02:18:18;;;;;;;19.98;5.18;;;;;;;1.14;100.00;103196.78;5273864;28;20016;-74
2022/02/26 02:20:49;;;;;;;13.55;5.47;;;;;;;1.10;100.00;103205.38;5273689;28;20048;-74
2022/02/26 02:23:21;;;;;;;21.00;5.85;;;;;;;1.11;100.00;103207.97;5274158;28;20150;-75
2022/02/26 02:25:55;;;;;;;14.18;5.47;;;;;;;1.18;100.00;103204.47;5273791;28;20029;-76
2022/02/26 02:28:26;;;;;;;17.20;5.13;;;;;;;1.12;100.00;103212.25;5274790;28;20067;-75
2022/02/26 02:30:57;;;;;;;18.88;6.50;;;;;;;1.13;100.00;103201.06;5272018;28;20444;-73
2022/02/26 02:33:29;;;;;;;20.77;11.00;;;;;;;1.16;100.00;103200.19;5274107;28;20420;-73
2022/02/26 02:36:00;;;;;;;22.05;7.53;;;;;;;1.11;100.00;103189.91;5273217;28;20257;-77
2022/02/26 02:38:31;;;;;;;22.50;7.38;;;;;;;1.13;100.00;103202.78;5272811;28;20082;-74
2022/02/26 02:41:03;;;;;;;17.85;5.93;;;;;;;1.12;100.00;103199.34;5272571;28;20051;-77
2022/02/26 02:43:35;;;;;;;26.80;11.88;;;;;;;1.12;100.00;103203.66;5272306;28;20033;-73
2022/02/26 02:46:07;;;;;;;124.90;69.15;;;;;;;1.12;100.00;103203.66;5273398;28;20028;-74
2022/02/26 02:48:38;;;;;;;101.50;46.92;;;;;;;1.15;100.00;103209.66;5273610;28;20527;-73
2022/02/26 02:51:10;;;;;;;193.82;88.18;;;;;;;1.04;100.00;103193.38;5274694;28;20051;-75
2022/02/26 02:53:41;;;;;;;51.65;21.95;;;;;;;1.09;100.00;103201.94;5274398;28;20123;-77
2022/02/26 02:56:12;;;;;;;30.58;10.55;;;;;;;1.11;100.00;103207.13;5272677;28;20101;-74
2022/02/26 02:58:44;;;;;;;27.40;8.55;;;;;;;1.08;100.00;103218.31;5274036;28;20460;-74
2022/02/26 03:01:15;;;;;;;25.92;9.68;;;;;;;1.11;100.00;103204.53;5271502;28;20397;-75
2022/02/26 03:03:46;;;;;;;28.60;7.40;;;;;;;1.10;100.00;103198.53;5274125;28;20032;-74
2022/02/26 03:06:18;;;;;;;29.73;8.98;;;;;;;1.12;100.00;103201.06;5271885;28;20128;-74
2022/02/26 03:08:49;;;;;;;14.43;7.13;;;;;;;1.05;100.00;103194.25;5273765;28;20081;-73
2022/02/26 03:11:20;;;;;;;21.65;7.30;;;;;;;1.13;100.00;103203.63;5273960;28;20037;-75
2022/02/26 03:13:52;;;;;;;25.70;7.75;;;;;;;1.12;100.00;103199.34;5270290;28;20047;-74
2022/02/26 03:16:23;;;;;;;22.30;7.55;;;;;;;1.08;100.00;103202.81;5274836;28;20024;-73
2022/02/26 03:18:54;;;;;;;17.00;7.55;;;;;;;1.09;100.00;103230.34;5271407;28;20071;-73
2022/02/26 03:21:26;;;;;;;19.58;6.90;;;;;;;1.07;100.00;103226.94;5273375;28;20059;-75
2022/02/26 03:23:57;;;;;;;22.65;7.35;;;;;;;1.06;100.00;103230.41;5273578;28;20082;-74
2022/02/26 03:26:28;;;;;;;21.50;8.00;;;;;;;1.04;100.00;103232.09;5273197;28;20413;-73
2022/02/26 03:29:00;;;;;;;19.30;7.85;;;;;;;1.01;100.00;103239.88;5272214;28;20032;-75
2022/02/26 03:31:32;;;;;;;21.70;7.88;;;;;;;0.99;100.00;103241.63;5273417;28;20052;-73
2022/02/26 03:34:03;;;;;;;17.42;7.80;;;;;;;0.99;100.00;103240.75;5272916;28;20036;-76
2022/02/26 03:36:34;;;;;;;45.10;10.10;;;;;;;0.98;100.00;103250.22;5273273;28;20162;-74
2022/02/26 03:39:05;;;;;;;21.92;7.88;;;;;;;0.93;100.00;103251.97;5274321;28;20055;-75
2022/02/26 03:41:37;;;;;;;24.85;8.13;;;;;;;0.91;100.00;103241.66;5272003;28;20037;-74
2022/02/26 03:44:09;;;;;;;22.92;8.48;;;;;;;0.92;100.00;103255.44;5273796;28;20017;-73
2022/02/26 03:46:40;;;;;;;22.73;7.47;;;;;;;0.85;100.00;103248.56;5272865;28;20063;-74
2022/02/26 03:49:12;;;;;;;17.52;7.40;;;;;;;0.86;100.00;103276.09;5273206;28;20024;-73
2022/02/26 03:51:43;;;;;;;16.92;7.22;;;;;;;0.84;100.00;103264.94;5274013;28;20064;-78
2022/02/26 03:54:15;;;;;;;21.88;9.07;;;;;;;0.88;100.00;103261.47;5275211;28;20028;-74
2022/02/26 03:56:46;;;;;;;23.40;8.30;;;;;;;0.86;100.00;103264.03;5276764;28;20016;-73
2022/02/26 03:59:17;;;;;;;21.85;8.55;;;;;;;0.83;100.00;103271.78;5277090;28;20032;-77
2022/02/26 04:01:49;;;;;;;23.17;9.38;;;;;;;0.84;100.00;103272.69;5277402;28;20079;-73
2022/02/26 04:04:20;;;;;;;21.90;8.38;;;;;;;0.80;100.00;103276.13;5277417;28;20035;-74
2022/02/26 04:06:51;;;;;;;24.63;7.88;;;;;;;0.77;100.00;103282.16;5274507;28;20518;-76
2022/02/26 04:09:23;;;;;;;25.45;8.88;;;;;;;0.78;100.00;103289.03;5276490;28;20040;-74
2022/02/26 04:11:54;;;;;;;26.67;8.50;;;;;;;0.78;100.00;103281.28;5276981;28;20060;-73
2022/02/26 04:14:25;;;;;;;19.67;8.60;;;;;;;0.75;100.00;103289.03;5276338;28;20478;-73
2022/02/26 04:16:57;;;;;;;20.60;9.52;;;;;;;0.78;100.00;103294.19;5275611;28;20032;-73
2022/02/26 04:19:28;;;;;;;21.10;8.68;;;;;;;0.75;100.00;103301.09;5276197;28;20062;-73
2022/02/26 04:22:00;;;;;;;18.55;8.35;;;;;;;0.69;100.00;103302.00;5274432;28;20060;-73
2022/02/26 04:24:32;;;;;;;23.67;8.60;;;;;;;0.68;100.00;103300.25;5276301;28;20039;-73
2022/02/26 04:27:03;;;;;;;26.45;8.30;;;;;;;0.62;100.00;103302.88;5276773;28;20032;-73
2022/02/26 04:29:35;;;;;;;21.10;9.40;;;;;;;0.68;100.00;103308.00;5275869;28;20035;-75
2022/02/26 04:32:06;;;;;;;19.58;8.77;;;;;;;0.65;100.00;103306.28;5273369;28;20445;-76
2022/02/26 04:34:38;;;;;;;22.65;8.88;;;;;;;0.65;100.00;103314.03;5276743;28;20028;-73
2022/02/26 04:37:09;;;;;;;19.92;8.15;;;;;;;0.61;100.00;103314.91;5275706;28;20493;-74
2022/02/26 04:39:40;;;;;;;18.60;8.93;;;;;;;0.68;100.00;103306.28;5276156;28;20388;-73
2022/02/26 04:42:11;;;;;;;20.50;9.00;;;;;;;0.60;100.00;103310.59;5274927;28;20028;-73
2022/02/26 04:44:44;;;;;;;26.02;10.55;;;;;;;0.63;100.00;103313.16;5276180;28;20056;-77
2022/02/26 04:47:16;;;;;;;24.10;10.55;;;;;;;0.64;100.00;103314.88;5276337;28;20175;-73
2022/02/26 04:49:47;;;;;;;20.45;11.23;;;;;;;0.61;100.00;103320.06;5275259;28;20400;-76
2022/02/26 04:52:18;;;;;;;22.65;10.40;;;;;;;0.57;100.00;103309.75;5274980;28;20048;-73
2022/02/26 04:54:50;;;;;;;23.88;10.60;;;;;;;0.51;100.00;103305.47;5276067;28;20040;-72
2022/02/26 04:57:21;;;;;;;21.05;10.55;;;;;;;0.32;100.00;103273.72;5274041;28;20115;-76
2022/02/26 04:59:52;;;;;;;23.52;10.75;;;;;;;0.53;100.00;103315.78;5276672;28;20385;-72
2022/02/26 05:02:24;;;;;;;27.17;11.60;;;;;;;0.50;100.00;103308.94;5272694;28;20035;-73
2022/02/26 05:04:55;;;;;;;27.52;11.63;;;;;;;0.47;100.00;103309.78;5272703;28;20020;-72
2022/02/26 05:07:26;;;;;;;27.60;10.02;;;;;;;0.44;100.00;103308.94;5273577;28;20024;-75
2022/02/26 05:09:58;;;;;;;26.42;9.85;;;;;;;0.39;100.00;103308.09;5275524;28;20033;-73
2022/02/26 05:12:29;;;;;;;20.83;9.77;;;;;;;0.38;100.00;103314.97;5250822;22;1038465;-75
2022/02/26 05:15:01;;;;;;;20.58;9.80;;;;;;;0.35;100.00;103316.72;5259229;28;20035;-75
2022/02/26 05:17:32;;;;;;;20.38;9.85;;;;;;;0.29;100.00;103306.41;5263345;28;20029;-73
2022/02/26 05:20:05;;;;;;;22.33;9.40;;;;;;;0.33;100.00;103323.56;5263283;28;20104;-73
2022/02/26 05:22:36;;;;;;;19.80;9.23;;;;;;;0.35;100.00;103319.28;5264552;28;20036;-73
2022/02/26 05:25:10;;;;;;;25.38;9.75;;;;;;;0.27;100.00;103313.28;5260694;28;20020;-73
2022/02/26 05:27:42;;;;;;;22.15;9.25;;;;;;;0.27;100.00;103310.72;5261742;28;20066;-73
2022/02/26 05:30:15;;;;;;;17.23;9.27;;;;;;;0.24;100.00;103315.00;5261195;28;20056;-73
2022/02/26 05:32:47;;;;;;;21.77;10.15;;;;;;;0.29;100.00;103324.44;5265720;28;20039;-73
2022/02/26 05:35:18;;;;;;;21.50;8.98;;;;;;;0.22;100.00;103319.28;5263192;28;20481;-74
2022/02/26 05:37:49;;;;;;;23.33;10.43;;;;;;;0.30;100.00;103327.00;5263907;28;20028;-72
2022/02/26 05:40:20;;;;;;;22.80;9.88;;;;;;;0.30;100.00;103319.28;5263925;28;20047;-74
2022/02/26 05:42:52;;;;;;;18.90;9.65;;;;;;;0.27;100.00;103321.03;5263949;28;20040;-73
2022/02/26 05:45:24;;;;;;;22.63;10.95;;;;;;;0.30;100.00;103328.72;5263652;28;20045;-73
2022/02/26 05:47:55;;;;;;;16.10;9.27;;;;;;;0.28;100.00;103327.91;5263982;28;20490;-74
2022/02/26 05:50:26;;;;;;;30.33;10.98;;;;;;;0.30;100.00;103327.00;5264348;28;20029;-73
2022/02/26 05:52:58;;;;;;;26.83;10.93;;;;;;;0.24;100.00;103320.16;5261650;28;20060;-73
2022/02/26 05:55:29;;;;;;;20.02;9.35;;;;;;;0.27;100.00;103315.88;5260840;28;20033;-73
2022/02/26 05:58:00;;;;;;;22.48;10.52;;;;;;;0.28;100.00;103331.31;5264199;28;20025;-73
2022/02/26 06:00:32;;;;;;;21.95;9.80;;;;;;;0.25;100.00;103336.47;5264508;28;20027;-73
2022/02/26 06:03:04;;;;;;;18.50;10.10;;;;;;;0.23;100.00;103339.06;5263519;28;20060;-73
2022/02/26 06:05:35;;;;;;;20.95;10.15;;;;;;;0.21;100.00;103342.50;5260751;28;20783;-74
2022/02/26 06:08:06;;;;;;;21.08;9.63;;;;;;;0.15;100.00;103342.50;5263281;28;20032;-73
2022/02/26 06:10:38;;;;;;;19.95;9.68;;;;;;;0.10;100.00;103334.78;5263173;28;20016;-73
2022/02/26 06:13:09;;;;;;;19.73;9.48;;;;;;;0.13;100.00;103352.81;5257442;28;20110;-73
2022/02/26 06:15:40;;;;;;;18.35;9.75;;;;;;;0.02;100.00;103339.09;5266356;28;20041;-73
2022/02/26 06:18:12;;;;;;;20.70;10.38;;;;;;;0.05;100.00;103361.44;5266207;28;20027;-74
2022/02/26 06:20:43;;;;;;;15.75;9.27;;;;;;;0.08;100.00;103362.28;5262779;28;20121;-73
2022/02/26 06:23:14;;;;;;;22.30;10.55;;;;;;;0.04;100.00;103363.16;5260449;28;20486;-73
2022/02/26 06:25:46;;;;;;;20.90;10.07;;;;;;;0.03;100.00;103363.13;5262042;28;20040;-73
2022/02/26 06:28:17;;;;;;;21.63;10.25;;;;;;;0.03;100.00;103374.31;5262814;28;20032;-73
2022/02/26 06:30:48;;;;;;;16.80;8.88;;;;;;;0.04;100.00;103381.19;5258729;28;20020;-73
2022/02/26 06:33:20;;;;;;;21.23;11.32;;;;;;;-0.04;100.00;103367.44;5262974;28;20024;-73
2022/02/26 06:35:52;;;;;;;16.63;10.30;;;;;;;-0.04;100.00;103375.16;5262690;28;20033;-73
2022/02/26 06:38:23;;;;;;;18.60;10.07;;;;;;;-0.08;100.00;103379.44;5264249;28;20098;-75
2022/02/26 06:40:55;;;;;;;23.13;9.57;;;;;;;-0.06;100.00;103376.91;5259947;28;20028;-73
2022/02/26 06:43:26;;;;;;;20.20;10.57;;;;;;;-0.09;100.00;103382.91;5264863;28;20021;-74
2022/02/26 06:45:58;;;;;;;16.85;10.15;;;;;;;-0.07;100.00;103378.63;5261774;28;20040;-73
2022/02/26 06:48:29;;;;;;;20.35;10.05;;;;;;;-0.10;100.00;103390.63;5262734;28;20025;-73
2022/02/26 06:51:00;;;;;;;21.83;10.20;;;;;;;-0.09;100.00;103385.47;5263380;28;20028;-73
2022/02/26 06:53:32;;;;;;;18.30;10.05;;;;;;;-0.10;100.00;103391.50;5265459;28;20051;-73
2022/02/26 06:56:03;;;;;;;23.13;10.32;;;;;;;-0.08;100.00;103388.91;5264734;28;20035;-74
2022/02/26 06:58:34;;;;;;;18.23;9.73;;;;;;;-0.07;100.00;103393.22;5265609;28;20031;-74
2022/02/26 07:01:06;;;;;;;18.35;9.45;;;;;;;-0.13;100.00;103398.34;5257944;28;20026;-73
2022/02/26 07:03:37;;;;;;;19.30;10.15;;;;;;;-0.11;100.00;103406.97;5251335;28;20621;-73
2022/02/26 07:06:08;;;;;;;20.52;11.15;;;;;;;-0.07;100.00;103399.22;5259155;28;20029;-73
2022/02/26 07:08:40;;;;;;;20.33;10.05;;;;;;;-0.05;100.00;103402.66;5261936;28;20508;-73
2022/02/26 07:11:11;;;;;;;20.40;10.82;;;;;;;-0.03;100.00;103405.25;5262882;28;20033;-75
2022/02/26 07:13:42;;;;;;;20.08;10.85;;;;;;;0.00;100.00;103412.97;5261958;28;20025;-73
2022/02/26 07:16:14;;;;;;;19.67;11.13;;;;;;;0.04;100.00;103406.09;5256933;28;20090;-73
2022/02/26 07:18:45;;;;;;;19.20;11.48;;;;;;;0.08;100.00;103410.41;5260031;28;20330;-72
2022/02/26 07:21:17;;;;;;;23.80;10.10;;;;;;;0.10;100.00;103412.09;5259115;28;20035;-73
2022/02/26 07:23:48;;;;;;;24.48;12.05;;;;;;;0.08;100.00;103421.56;5255535;28;20037;-74
2022/02/26 07:26:19;;;;;;;19.60;10.32;;;;;;;0.12;100.00;103428.44;5257299;28;20036;-73
2022/02/26 07:28:51;;;;;;;25.10;12.13;;;;;;;0.13;100.00;103427.59;5261308;28;20041;-73
2022/02/26 07:31:22;;;;;;;15.68;10.63;;;;;;;0.15;100.00;103415.56;5263232;28;20033;-74
2022/02/26 07:33:56;;;;;;;19.48;10.88;;;;;;;0.21;100.00;103425.00;5263247;28;20028;-73
2022/02/26 07:36:27;;;;;;;22.58;11.60;;;;;;;0.19;100.00;103432.75;5266580;28;20537;-73
2022/02/26 07:38:59;;;;;;;21.10;12.15;;;;;;;0.25;100.00;103431.88;5262082;28;20028;-74
2022/02/26 07:41:31;;;;;;;23.17;11.90;;;;;;;0.30;100.00;103431.88;5264432;28;20040;-73
2022/02/26 07:44:02;;;;;;;25.58;12.80;;;;;;;0.27;100.00;103427.59;5266572;28;20042;-73
2022/02/26 07:46:33;;;;;;;22.83;13.73;;;;;;;0.40;100.00;103434.44;5264593;28;20029;-75
2022/02/26 07:49:05;;;;;;;24.83;14.68;;;;;;;0.44;100.00;103427.56;5262174;28;20485;-73
2022/02/26 07:51:37;;;;;;;19.98;15.20;;;;;;;0.56;100.00;103431.84;5261461;28;20469;-73
2022/02/26 07:54:09;;;;;;;26.88;16.77;;;;;;;0.60;100.00;103439.56;5263831;28;20025;-73
2022/02/26 07:56:42;;;;;;;35.05;17.35;;;;;;;0.67;100.00;103445.59;5263035;28;20512;-73
2022/02/26 07:59:13;;;;;;;26.65;17.80;;;;;;;0.73;100.00;103443.88;5261667;28;20334;-74
2022/02/26 08:01:45;;;;;;;26.50;17.67;;;;;;;0.82;100.00;103450.72;5262011;28;20029;-73
2022/02/26 08:04:17;;;;;;;30.63;18.25;;;;;;;0.84;100.00;103449.00;5267303;28;20615;-73
2022/02/26 08:06:48;;;;;;;34.17;18.58;;;;;;;0.95;100.00;103447.25;5265852;28;20021;-73
2022/02/26 08:09:19;;;;;;;27.10;17.58;;;;;;;0.96;100.00;103453.28;5265044;28;20036;-73
2022/02/26 08:11:50;;;;;;;31.30;17.67;;;;;;;1.01;100.00;103446.38;5262454;28;20080;-74
2022/02/26 08:14:22;;;;;;;27.67;18.00;;;;;;;1.06;100.00;103447.25;5260209;28;20024;-73
2022/02/26 08:16:53;;;;;;;27.30;16.67;;;;;;;1.12;100.00;103454.94;5266248;28;20176;-73
2022/02/26 10:36:24;;;;;;;24.58;7.40;;;;;;;6.39;100.00;103450.00;5235117;28;20045;-75
2022/02/26 10:38:55;;;;;;;17.73;7.38;;;;;;;6.38;100.00;103450.06;5248827;28;20518;-76
2022/02/26 10:41:26;;;;;;;24.10;7.43;;;;;;;6.64;100.00;103442.41;5256822;28;20071;-74
2022/02/26 10:44:01;;;;;;;21.33;5.72;;;;;;;6.77;100.00;103451.59;5255233;28;20392;-75
2022/02/26 10:46:33;;;;;;;17.05;5.35;;;;;;;6.88;100.00;103450.47;5256403;28;22097;-76
2022/02/26 10:49:09;;;;;;;18.20;5.43;;;;;;;7.06;100.00;103444.75;5252008;28;20059;-74
2022/02/26 10:51:43;;;;;;;19.25;5.28;;;;;;;7.18;100.00;103448.75;5255219;28;20124;-74
2022/02/26 10:54:23;;;;;;;21.50;5.28;;;;;;;7.39;100.00;103445.53;5251175;28;20087;-75
2022/02/26 10:57:02;;;;;;;18.48;5.20;;;;;;;7.42;100.00;103424.53;5260028;28;20107;-75
2022/02/26 10:59:43;;;;;;;18.08;5.07;;;;;;;7.57;100.00;103436.25;5251434;28;20060;-73
2022/02/26 11:02:22;;;;;;;16.40;4.38;;;;;;;7.47;100.00;103427.88;5253514;28;20455;-75
2022/02/26 11:04:55;;;;;;;20.42;4.40;;;;;;;7.52;100.00;103438.16;5247555;28;20016;-74
2022/02/26 11:07:27;;;;;;;;;;;;;;;8.02;100.00;103438.34;5260041;28;20297;-74
2022/02/26 11:09:59;;;;;;;14.25;4.53;;;;;;;7.83;100.00;103429.38;5260768;28;20031;-74
2022/02/26 11:12:30;;;;;;;15.20;4.70;;;;;;;7.89;100.00;103419.63;5260123;28;20134;-73
2022/02/26 11:15:03;;;;;;;11.88;3.45;;;;;;;7.83;100.00;103421.56;5252607;28;20036;-74
2022/02/26 11:17:35;;;;;;;15.95;4.18;;;;;;;7.80;100.00;103423.38;5253627;28;20141;-74
2022/02/26 11:20:11;;;;;;;20.38;4.40;;;;;;;7.87;100.00;103418.78;5253255;28;20071;-76
2022/02/26 11:22:42;;;;;;;13.98;4.07;;;;;;;7.89;100.00;103403.97;5260287;28;20020;-75
2022/02/26 11:25:14;;;;;;;12.30;3.55;;;;;;;7.92;100.00;103408.22;5255934;28;20456;-74
2022/02/26 11:27:46;;;;;;;12.27;5.05;;;;;;;7.95;100.00;103410.72;5263618;28;20055;-74
2022/02/26 11:30:23;;;;;;;14.82;5.55;;;;;;;7.95;100.00;103411.56;5256942;28;20048;-76
2022/02/26 11:32:56;;;;;;;19.55;5.65;;;;;;;7.80;100.00;103412.06;5257290;28;20028;-74
2022/02/26 11:35:28;;;;;;;24.33;10.55;;;;;;;7.70;100.00;103421.09;5259303;28;20063;-74
2022/02/26 11:38:08;;;;;;;23.30;9.50;;;;;;;7.79;100.00;103418.19;5257360;28;20055;-76
2022/02/26 11:40:39;;;;;;;30.60;14.20;;;;;;;7.60;100.00;103419.66;5257769;28;20089;-76
2022/02/26 11:43:38;;;;;;;28.65;16.65;;;;;;;7.57;100.00;103420.63;5256948;28;20029;-74
2022/02/26 11:46:21;;;;;;;31.75;17.83;;;;;;;7.61;100.00;103416.16;5258421;28;20145;-74
2022/02/26 11:48:55;;;;;;;29.30;18.70;;;;;;;7.66;100.00;103419.50;5254454;28;20378;-75
2022/02/26 11:51:32;;;;;;;38.13;24.85;;;;;;;7.67;100.00;103429.03;5252383;28;20041;-75
2022/02/26 11:54:06;;;;;;;38.45;24.58;;;;;;;7.88;100.00;103419.66;5257757;28;20031;-74
2022/02/26 11:57:02;;;;;;;35.88;24.33;;;;;;;8.08;100.00;103425.09;5257366;28;20180;-76
2022/02/26 11:59:38;;;;;;;38.80;24.90;;;;;;;8.31;100.00;103424.31;5258471;28;20743;-76
2022/02/26 12:02:12;;;;;;;39.45;24.50;;;;;;;8.34;100.00;103426.84;5259173;28;20021;-75
2022/02/26 12:04:59;;;;;;;34.08;22.05;;;;;;;8.49;100.00;103423.72;5256797;28;20037;-74
2022/02/26 12:07:42;;;;;;;33.65;19.98;;;;;;;8.46;100.00;103418.59;5257169;28;20401;-74
2022/02/26 12:10:14;;;;;;;31.20;20.30;;;;;;;8.13;100.00;103419.72;5254664;28;20880;-76
2022/02/26 12:12:48;;;;;;;31.95;18.80;;;;;;;8.17;100.00;103422.16;5256695;28;20107;-76
2022/02/26 12:15:29;;;;;;;31.52;17.85;;;;;;;8.07;100.00;103423.38;5255317;28;20618;-74
2022/02/26 12:18:05;;;;;;;27.02;14.23;;;;;;;7.99;100.00;103428.88;5257022;28;20025;-74
2022/02/26 12:20:37;;;;;;;23.80;12.50;;;;;;;7.90;100.00;103425.69;5254157;28;20508;-75
2022/02/26 12:23:10;;;;;;;27.83;12.85;;;;;;;7.98;100.00;103418.44;5255718;28;20020;-76
2022/02/26 12:25:43;;;;;;;25.85;11.38;;;;;;;7.67;100.00;103416.81;5256778;28;20439;-74
2022/02/26 12:28:15;;;;;;;;;;;;;;;8.18;100.00;103433.44;5256139;28;20530;-76
2022/02/26 12:31:05;;;;;;;22.23;12.32;;;;;;;7.78;100.00;103424.31;5250829;28;19924;-74
2022/02/26 12:33:45;;;;;;;22.63;10.05;;;;;;;7.41;100.00;103425.44;5248508;28;20037;-77
2022/02/26 12:36:18;;;;;;;21.42;7.82;;;;;;;7.30;100.00;103430.13;5254077;28;20033;-75
2022/02/26 12:38:52;;;;;;;18.23;7.83;;;;;;;7.35;100.00;103429.97;5260622;28;20029;-74
2022/02/26 12:41:31;;;;;;;23.23;9.82;;;;;;;7.26;100.00;103420.69;5261261;28;20036;-73
2022/02/26 12:44:04;;;;;;;23.55;9.07;;;;;;;7.33;100.00;103430.03;5260024;28;20033;-75
2022/02/26 12:46:36;;;;;;;20.73;8.35;;;;;;;7.28;100.00;103424.13;5256437;28;20435;-74
2022/02/26 12:49:07;;;;;;;18.50;8.57;;;;;;;7.30;100.00;103423.16;5258409;28;20036;-74
2022/02/26 12:51:41;;;;;;;19.67;7.93;;;;;;;7.35;100.00;103420.44;5250365;28;20078;-74
2022/02/26 12:54:13;;;;;;;21.27;8.10;;;;;;;7.35;100.00;103416.94;5255524;28;20371;-76
2022/02/26 12:56:44;;;;;;;17.52;8.73;;;;;;;7.52;100.00;103422.53;5253448;28;20078;-75
2022/02/26 12:59:18;;;;;;;21.13;8.93;;;;;;;7.60;100.00;103417.91;5250311;28;20401;-73
2022/02/26 13:01:52;;;;;;;23.27;8.48;;;;;;;7.66;100.00;103409.91;5251464;28;20060;-76
2022/02/26 13:04:28;;;;;;;;;;;;;;;8.25;100.00;103401.00;5250489;28;20020;-74
2022/02/26 13:07:08;;;;;;;17.55;7.63;;;;;;;8.00;100.00;103401.84;5249604;28;19978;-76
2022/02/26 13:09:57;;;;;;;19.92;9.48;;;;;;;8.14;100.00;103390.91;5258184;28;20025;-73
2022/02/26 13:12:33;;;;;;;21.33;9.30;;;;;;;7.87;100.00;103400.53;5250902;28;20039;-74
2022/02/26 13:15:09;;;;;;;21.50;9.15;;;;;;;7.78;100.00;103382.56;5253068;28;20991;-76
2022/02/26 13:17:47;;;;;;;20.45;9.13;;;;;;;7.84;100.00;103387.59;5246248;28;20123;-76
2022/02/26 13:20:25;;;;;;;21.23;10.45;;;;;;;7.70;100.00;103379.34;5255878;28;20051;-74
2022/02/26 13:22:59;;;;;;;23.30;10.57;;;;;;;7.61;100.00;103377.03;5254496;28;20029;-74
2022/02/26 13:25:33;;;;;;;20.40;9.80;;;;;;;7.62;100.00;103378.75;5256685;28;20761;-75
2022/02/26 13:28:05;;;;;;;23.25;9.60;;;;;;;7.50;100.00;103374.75;5253780;28;20033;-76
2022/02/26 13:30:37;;;;;;;22.48;8.98;;;;;;;7.60;100.00;103370.09;5255367;28;20042;-74
2022/02/26 13:33:08;;;;;;;20.20;8.77;;;;;;;7.52;100.00;103365.97;5249735;28;20036;-74
2022/02/26 13:35:39;;;;;;;22.75;9.43;;;;;;;7.39;100.00;103364.69;5255630;28;20045;-74
2022/02/26 13:38:11;;;;;;;19.10;9.25;;;;;;;7.30;100.00;103360.56;5256593;28;20504;-76
2022/02/26 13:40:42;;;;;;;21.08;10.35;;;;;;;7.26;100.00;103358.13;5255010;28;20127;-75
2022/02/26 13:43:13;;;;;;;20.70;9.70;;;;;;;7.17;100.00;103354.03;5253890;28;20074;-76
2022/02/26 13:45:45;;;;;;;24.65;10.93;;;;;;;7.24;100.00;103352.97;5255333;28;20047;-74
2022/02/26 13:48:18;;;;;;;25.38;11.25;;;;;;;7.25;100.00;103346.84;5256007;28;20056;-75
2022/02/26 13:50:55;;;;;;;28.02;11.65;;;;;;;7.25;100.00;103344.22;5255047;28;20028;-76
2022/02/26 13:53:27;;;;;;;21.75;10.10;;;;;;;7.28;100.00;103325.88;5256509;28;20492;-74
2022/02/26 13:56:00;;;;;;;21.58;8.75;;;;;;;7.27;100.00;103326.78;5250130;28;20037;-76